createdAt,value
2022-07-30T00:00:11.682Z,19.60
2022-07-30T00:01:17.055Z,19.50
2022-07-30T00:02:31.357Z,19.50
2022-07-30T00:03:36.889Z,19.50
2022-07-30T00:04:41.249Z,19.50
2022-07-30T00:05:46.800Z,19.50
2022-07-30T00:06:52.195Z,19.40
2022-07-30T00:07:56.817Z,19.40
2022-07-30T00:09:00.751Z,19.40
2022-07-30T00:10:04.841Z,19.50
2022-07-30T00:11:07.576Z,19.50
2022-07-30T00:12:13.399Z,19.40
2022-07-30T00:13:18.489Z,19.40
2022-07-30T00:14:24.714Z,19.30
2022-07-30T00:15:28.325Z,19.30
2022-07-30T00:16:31.960Z,19.30
2022-07-30T00:17:39.511Z,19.30
2022-07-30T00:18:45.346Z,19.20
2022-07-30T00:19:51.444Z,19.30
2022-07-30T00:20:57.940Z,19.20
2022-07-30T00:22:05.898Z,19.20
2022-07-30T00:23:14.709Z,19.10
2022-07-30T00:24:24.473Z,19.10
2022-07-30T00:25:33.047Z,19.10
2022-07-30T00:26:37.652Z,19.10
2022-07-30T00:27:42.925Z,19.00
2022-07-30T00:28:47.137Z,19.00
2022-07-30T00:29:55.389Z,18.90
2022-07-30T00:31:01.536Z,19.00
2022-07-30T00:32:07.502Z,18.90
2022-07-30T00:33:14.362Z,18.90
2022-07-30T00:34:21.915Z,18.90
2022-07-30T00:35:27.700Z,18.90
2022-07-30T00:36:33.253Z,18.90
2022-07-30T00:37:37.813Z,19.00
2022-07-30T00:38:48.403Z,19.00
2022-07-30T00:39:52.368Z,19.00
2022-07-30T00:41:01.766Z,19.00
2022-07-30T00:42:05.606Z,19.00
2022-07-30T00:43:09.941Z,19.10
2022-07-30T00:44:20.508Z,19.10
2022-07-30T00:45:37.005Z,19.10
2022-07-30T00:46:41.229Z,19.10
2022-07-30T00:47:50.019Z,19.20
2022-07-30T00:49:00.080Z,19.30
2022-07-30T00:50:06.268Z,19.30
2022-07-30T00:51:11.019Z,19.40
2022-07-30T00:52:17.399Z,19.50
2022-07-30T00:53:23.616Z,19.50
2022-07-30T00:54:26.238Z,19.60
2022-07-30T00:55:38.309Z,19.60
2022-07-30T00:56:44.016Z,19.70
2022-07-30T00:57:49.283Z,19.70
2022-07-30T00:58:58.616Z,19.70
2022-07-30T01:00:03.634Z,19.70
2022-07-30T01:01:06.188Z,19.70
2022-07-30T01:02:10.601Z,19.70
2022-07-30T01:03:16.445Z,19.80
2022-07-30T01:04:36.689Z,19.80
2022-07-30T01:05:43.592Z,19.80
2022-07-30T01:06:50.564Z,19.70
2022-07-30T01:07:53.588Z,19.60
2022-07-30T01:09:02.885Z,19.50
2022-07-30T01:10:07.266Z,19.50
2022-07-30T01:11:12.474Z,19.40
2022-07-30T01:12:25.134Z,19.50
2022-07-30T01:13:29.628Z,19.50
2022-07-30T01:14:41.291Z,19.50
2022-07-30T01:15:49.252Z,19.60
2022-07-30T01:16:53.713Z,19.60
2022-07-30T01:18:04.034Z,19.60
2022-07-30T01:19:33.364Z,19.70
2022-07-30T01:20:44.622Z,19.70
2022-07-30T01:21:57.856Z,19.70
2022-07-30T01:23:11.568Z,19.70
2022-07-30T01:24:28.184Z,19.70
2022-07-30T01:25:57.048Z,19.80
2022-07-30T01:27:03.545Z,19.70
2022-07-30T01:28:14.598Z,19.70
2022-07-30T01:29:24.517Z,19.70
2022-07-30T01:30:34.931Z,19.60
2022-07-30T01:31:41.986Z,19.70
2022-07-30T01:32:49.212Z,19.80
2022-07-30T01:33:57.872Z,19.80
2022-07-30T01:35:07.232Z,19.90
2022-07-30T01:36:16.057Z,19.90
2022-07-30T01:37:21.458Z,19.90
2022-07-30T01:38:34.743Z,19.80
2022-07-30T01:39:45.254Z,19.70
2022-07-30T01:40:57.546Z,19.70
2022-07-30T01:42:07.209Z,19.70
2022-07-30T01:43:13.162Z,19.60
2022-07-30T01:44:23.912Z,19.60
2022-07-30T01:45:41.381Z,19.50
2022-07-30T01:46:53.789Z,19.60
2022-07-30T01:48:02.260Z,19.60
2022-07-30T01:49:17.709Z,19.60
2022-07-30T01:50:25.321Z,19.60
2022-07-30T01:51:33.342Z,19.70
2022-07-30T01:52:46.293Z,19.60
2022-07-30T01:53:58.586Z,19.60
2022-07-30T01:55:16.553Z,19.70
2022-07-30T01:56:26.994Z,19.70
2022-07-30T01:57:32.574Z,19.70
2022-07-30T01:58:43.510Z,19.70
2022-07-30T02:00:02.966Z,19.60
2022-07-30T02:01:23.185Z,19.60
2022-07-30T02:02:43.014Z,19.50
2022-07-30T02:03:47.593Z,19.40
2022-07-30T02:04:55.110Z,19.30
2022-07-30T02:06:07.101Z,19.20
2022-07-30T02:07:21.304Z,19.10
2022-07-30T02:08:35.487Z,19.00
2022-07-30T02:09:54.459Z,18.90
2022-07-30T02:11:08.836Z,18.90
2022-07-30T02:12:31.169Z,18.80
2022-07-30T02:13:59.699Z,18.70
2022-07-30T02:15:18.740Z,18.60
2022-07-30T02:16:37.926Z,18.60
2022-07-30T02:17:46.935Z,18.60
2022-07-30T02:19:08.281Z,18.60
2022-07-30T02:20:33.655Z,18.70
2022-07-30T02:21:50.881Z,18.80
2022-07-30T02:23:13.473Z,18.80
2022-07-30T02:26:02.081Z,18.80
2022-07-30T02:27:18.712Z,18.70
2022-07-30T02:28:29.686Z,18.70
2022-07-30T02:29:40.315Z,18.60
2022-07-30T02:33:35.745Z,18.50
2022-07-30T02:34:50.810Z,18.40
2022-07-30T02:35:57.986Z,18.30
2022-07-30T02:37:04.796Z,18.30
2022-07-30T02:38:11.513Z,18.30
2022-07-30T02:39:17.544Z,18.20
2022-07-30T02:40:23.568Z,18.20
2022-07-30T02:41:31.002Z,18.20
2022-07-30T02:42:38.066Z,18.20
2022-07-30T02:43:46.064Z,18.30
2022-07-30T02:44:58.604Z,18.20
2022-07-30T02:46:06.148Z,18.20
2022-07-30T02:47:31.141Z,18.10
2022-07-30T02:48:41.117Z,18.20
2022-07-30T02:49:48.526Z,18.20
2022-07-30T02:50:55.708Z,18.30
2022-07-30T02:52:01.278Z,18.30
2022-07-30T02:53:11.216Z,18.40
2022-07-30T02:54:19.522Z,18.30
2022-07-30T02:55:26.688Z,18.30
2022-07-30T02:56:32.020Z,18.20
2022-07-30T02:57:37.319Z,18.20
2022-07-30T02:58:50.991Z,18.20
2022-07-30T02:59:59.628Z,18.20
2022-07-30T03:01:04.538Z,18.30
2022-07-30T03:02:09.947Z,18.40
2022-07-30T03:03:16.832Z,18.40
2022-07-30T03:04:22.220Z,18.50
2022-07-30T03:05:28.004Z,18.50
2022-07-30T03:06:36.600Z,18.50
2022-07-30T03:07:42.726Z,18.50
2022-07-30T03:08:45.832Z,18.60
2022-07-30T03:09:50.954Z,18.60
2022-07-30T03:10:56.550Z,18.60
2022-07-30T03:12:04.531Z,18.70
2022-07-30T03:13:11.100Z,18.70
2022-07-30T03:14:14.778Z,18.70
2022-07-30T03:15:18.730Z,18.70
2022-07-30T03:16:25.116Z,18.60
2022-07-30T03:17:40.301Z,18.60
2022-07-30T03:18:45.896Z,18.70
2022-07-30T03:19:51.779Z,18.80
2022-07-30T03:20:58.480Z,18.80
2022-07-30T03:22:05.902Z,18.80
2022-07-30T03:23:12.378Z,18.80
2022-07-30T03:24:17.466Z,18.90
2022-07-30T03:25:29.692Z,18.80
2022-07-30T03:26:35.061Z,18.70
2022-07-30T03:27:39.936Z,18.70
2022-07-30T03:28:44.141Z,18.60
2022-07-30T03:29:54.336Z,18.50
2022-07-30T03:30:59.921Z,18.60
2022-07-30T03:32:06.383Z,18.70
2022-07-30T03:33:10.880Z,18.70
2022-07-30T03:34:20.459Z,18.70
2022-07-30T03:35:26.098Z,18.80
2022-07-30T03:36:31.918Z,19.00
2022-07-30T03:37:37.054Z,19.00
2022-07-30T03:38:43.812Z,19.00
2022-07-30T03:39:48.167Z,19.00
2022-07-30T03:40:53.926Z,19.10
2022-07-30T03:41:57.004Z,19.00
2022-07-30T03:43:02.218Z,19.00
2022-07-30T03:44:06.113Z,18.90
2022-07-30T03:45:15.028Z,19.00
2022-07-30T03:46:18.845Z,19.00
2022-07-30T03:47:27.036Z,19.00
2022-07-30T03:48:31.470Z,18.90
2022-07-30T03:49:35.216Z,18.00
2022-07-30T03:50:40.347Z,19.00
2022-07-30T03:51:44.405Z,19.90
2022-07-30T03:52:48.136Z,18.80
2022-07-30T03:53:53.093Z,18.80
2022-07-30T03:55:15.284Z,18.80
2022-07-30T03:56:24.030Z,18.70
2022-07-30T03:57:41.114Z,18.70
2022-07-30T03:58:44.507Z,18.50
2022-07-30T03:59:48.557Z,18.40
2022-07-30T04:00:54.448Z,18.30
2022-07-30T04:02:06.869Z,18.20
2022-07-30T04:03:31.986Z,18.20
2022-07-30T04:04:43.060Z,18.20
2022-07-30T04:05:48.054Z,18.20
2022-07-30T04:06:50.477Z,18.30
2022-07-30T04:07:55.772Z,18.30
2022-07-30T04:08:59.852Z,18.30
2022-07-30T04:10:03.287Z,18.30
2022-07-30T04:11:45.503Z,18.30
2022-07-30T04:12:51.966Z,18.30
2022-07-30T04:13:55.438Z,18.40
2022-07-30T04:15:01.148Z,18.30
2022-07-30T04:16:39.260Z,18.40
2022-07-30T04:17:45.388Z,18.40
2022-07-30T04:18:53.453Z,18.50
2022-07-30T04:20:02.904Z,18.50
2022-07-30T04:21:17.146Z,18.50
2022-07-30T04:22:28.605Z,18.50
2022-07-30T04:23:31.653Z,18.40
2022-07-30T04:24:57.090Z,18.30
2022-07-30T04:26:02.236Z,18.30
2022-07-30T04:27:08.563Z,18.30
2022-07-30T04:28:12.111Z,18.30
2022-07-30T04:29:19.155Z,18.30
2022-07-30T04:30:23.364Z,18.30
2022-07-30T04:31:38.165Z,18.30
2022-07-30T04:33:03.726Z,18.30
2022-07-30T04:34:22.488Z,18.50
2022-07-30T04:35:50.776Z,18.50
2022-07-30T04:36:54.197Z,18.00
2022-07-30T04:37:57.026Z,18.70
2022-07-30T04:39:01.546Z,18.60
2022-07-30T04:40:08.246Z,18.60
2022-07-30T04:41:10.652Z,18.50
2022-07-30T04:42:34.307Z,18.50
2022-07-30T04:43:41.398Z,18.40
2022-07-30T04:44:45.091Z,18.40
2022-07-30T04:46:07.035Z,18.40
2022-07-30T04:47:11.980Z,18.40
2022-07-30T04:48:28.626Z,18.50
2022-07-30T04:50:02.278Z,18.60
2022-07-30T04:51:14.240Z,18.70
2022-07-30T04:52:19.031Z,18.70
2022-07-30T04:53:23.398Z,18.70
2022-07-30T04:54:42.248Z,18.90
2022-07-30T04:55:49.171Z,19.00
2022-07-30T04:56:54.491Z,19.00
2022-07-30T04:57:58.107Z,19.20
2022-07-30T04:59:03.717Z,19.10
2022-07-30T05:00:09.199Z,19.30
2022-07-30T05:01:22.942Z,19.30
2022-07-30T05:02:30.922Z,19.00
2022-07-30T05:03:37.717Z,19.40
2022-07-30T05:04:42.135Z,19.50
2022-07-30T05:05:46.942Z,19.50
2022-07-30T05:06:51.357Z,19.50
2022-07-30T05:07:55.549Z,19.50
2022-07-30T05:09:00.169Z,19.50
2022-07-30T05:10:02.878Z,19.40
2022-07-30T05:11:07.087Z,19.40
2022-07-30T05:12:10.257Z,19.50
2022-07-30T05:13:14.486Z,19.50
2022-07-30T05:14:17.341Z,19.40
2022-07-30T05:15:20.910Z,19.40
2022-07-30T05:16:23.509Z,19.30
2022-07-30T05:17:29.661Z,19.40
2022-07-30T05:18:32.354Z,19.40
2022-07-30T05:19:36.125Z,19.50
2022-07-30T05:20:39.184Z,19.60
2022-07-30T05:21:51.727Z,19.70
2022-07-30T05:22:54.278Z,19.70
2022-07-30T05:23:59.290Z,19.70
2022-07-30T05:25:15.834Z,19.80
2022-07-30T05:26:27.782Z,19.90
2022-07-30T05:27:32.771Z,19.90
2022-07-30T05:28:36.138Z,20.10
2022-07-30T05:29:43.975Z,20.20
2022-07-30T05:30:50.146Z,20.30
2022-07-30T05:31:55.168Z,20.50
2022-07-30T05:33:11.609Z,19.60
2022-07-30T05:38:39.911Z,20.50
2022-07-30T05:40:02.187Z,20.40
2022-07-30T05:41:32.915Z,20.40
2022-07-30T05:42:49.104Z,20.30
2022-07-30T05:43:55.827Z,20.20
2022-07-30T05:45:00.326Z,20.10
2022-07-30T05:46:03.848Z,20.10
2022-07-30T05:47:06.537Z,20.20
2022-07-30T05:48:11.818Z,20.30
2022-07-30T05:49:15.920Z,20.30
2022-07-30T05:50:19.308Z,20.40
2022-07-30T05:51:22.419Z,20.40
2022-07-30T05:52:26.334Z,20.50
2022-07-30T05:53:40.357Z,20.60
2022-07-30T05:54:47.031Z,20.60
2022-07-30T05:56:07.709Z,20.50
2022-07-30T05:57:35.895Z,20.40
2022-07-30T05:58:38.627Z,20.30
2022-07-30T05:59:42.502Z,20.20
2022-07-30T06:00:47.464Z,20.10
2022-07-30T06:01:50.158Z,20.10
2022-07-30T06:02:59.535Z,20.10
2022-07-30T06:04:03.239Z,20.00
2022-07-30T06:05:23.090Z,20.10
2022-07-30T06:06:26.019Z,20.00
2022-07-30T06:07:29.410Z,20.00
2022-07-30T06:08:33.086Z,19.90
2022-07-30T06:09:37.424Z,20.00
2022-07-30T06:10:41.765Z,19.90
2022-07-30T06:11:48.367Z,19.90
2022-07-30T06:12:51.936Z,20.00
2022-07-30T06:13:55.202Z,20.00
2022-07-30T06:14:59.621Z,20.00
2022-07-30T06:16:06.305Z,20.00
2022-07-30T06:17:12.086Z,19.90
2022-07-30T06:18:41.915Z,19.90
2022-07-30T06:19:54.399Z,20.00
2022-07-30T06:21:01.104Z,20.10
2022-07-30T06:22:26.209Z,20.30
2022-07-30T06:23:30.713Z,20.50
2022-07-30T06:24:39.877Z,20.60
2022-07-30T06:25:48.422Z,20.80
2022-07-30T06:26:52.518Z,20.90
2022-07-30T06:27:55.758Z,21.00
2022-07-30T06:28:59.249Z,21.10
2022-07-30T06:30:08.322Z,22.10
2022-07-30T06:31:11.994Z,21.30
2022-07-30T06:32:14.428Z,21.30
2022-07-30T06:33:18.210Z,21.40
2022-07-30T06:34:20.673Z,21.40
2022-07-30T06:35:25.297Z,21.40
2022-07-30T06:36:27.972Z,21.40
2022-07-30T06:38:00.585Z,21.40
2022-07-30T06:39:02.512Z,21.50
2022-07-30T06:40:41.565Z,20.60
2022-07-30T06:41:53.746Z,21.40
2022-07-30T06:42:57.085Z,21.50
2022-07-30T06:44:28.675Z,21.50
2022-07-30T06:45:56.650Z,21.50
2022-07-30T06:47:07.830Z,21.60
2022-07-30T06:48:14.435Z,21.60
2022-07-30T06:49:17.536Z,21.60
2022-07-30T06:50:21.615Z,21.60
2022-07-30T06:51:25.485Z,21.50
2022-07-30T06:52:28.848Z,21.40
2022-07-30T06:53:31.199Z,21.40
2022-07-30T06:54:49.414Z,21.40
2022-07-30T06:56:12.983Z,21.20
2022-07-30T06:57:31.153Z,20.90
2022-07-30T06:58:37.220Z,20.70
2022-07-30T06:59:59.419Z,20.50
2022-07-30T07:01:11.580Z,20.40
2022-07-30T07:02:15.686Z,20.40
2022-07-30T07:03:40.190Z,20.50
2022-07-30T07:04:43.177Z,20.70
2022-07-30T07:05:47.150Z,20.80
2022-07-30T07:06:51.605Z,20.80
2022-07-30T07:08:04.852Z,20.90
2022-07-30T07:09:12.694Z,20.90
2022-07-30T07:10:35.761Z,21.00
2022-07-30T07:12:01.365Z,21.00
2022-07-30T07:13:07.282Z,21.10
2022-07-30T07:14:12.942Z,21.20
2022-07-30T07:15:15.429Z,21.30
2022-07-30T07:16:21.799Z,21.40
2022-07-30T07:17:25.927Z,21.50
2022-07-30T07:18:35.084Z,21.50
2022-07-30T07:20:01.385Z,21.60
2022-07-30T07:21:06.043Z,21.60
2022-07-30T07:22:12.870Z,21.90
2022-07-30T07:23:19.916Z,21.60
2022-07-30T07:24:25.549Z,21.60
2022-07-30T07:25:33.033Z,21.60
2022-07-30T07:26:37.091Z,21.70
2022-07-30T07:27:39.738Z,21.70
2022-07-30T07:28:43.612Z,21.60
2022-07-30T07:30:05.464Z,21.60
2022-07-30T07:32:05.367Z,21.50
2022-07-30T07:32:37.589Z,21.30
2022-07-30T07:33:42.889Z,21.00
2022-07-30T07:34:45.540Z,20.90
2022-07-30T07:35:50.464Z,20.80
2022-07-30T07:37:08.137Z,20.80
2022-07-30T07:38:11.941Z,20.90
2022-07-30T07:39:15.503Z,21.00
2022-07-30T07:40:19.903Z,20.90
2022-07-30T07:41:23.877Z,20.90
2022-07-30T07:42:26.855Z,20.80
2022-07-30T07:43:33.469Z,20.70
2022-07-30T07:44:37.358Z,20.70
2022-07-30T07:45:42.062Z,20.60
2022-07-30T07:46:44.879Z,20.60
2022-07-30T07:47:52.019Z,20.70
2022-07-30T07:49:16.929Z,20.80
2022-07-30T07:50:23.015Z,21.00
2022-07-30T07:51:46.775Z,21.20
2022-07-30T07:52:51.952Z,21.30
2022-07-30T07:54:19.931Z,21.50
2022-07-30T07:55:20.326Z,21.70
2022-07-30T07:56:23.253Z,22.00
2022-07-30T07:57:27.669Z,22.10
2022-07-30T07:58:33.215Z,22.30
2022-07-30T07:59:40.528Z,22.40
2022-07-30T08:00:55.221Z,22.50
2022-07-30T08:02:05.293Z,22.70
2022-07-30T08:03:47.082Z,22.90
2022-07-30T08:05:10.749Z,23.10
2022-07-30T08:06:25.352Z,23.20
2022-07-30T08:07:48.859Z,23.20
2022-07-30T08:09:12.543Z,23.20
2022-07-30T08:10:40.840Z,23.00
2022-07-30T08:12:11.617Z,23.00
2022-07-30T08:13:51.550Z,23.00
2022-07-30T08:15:17.090Z,23.10
2022-07-30T08:16:52.748Z,23.20
2022-07-30T08:18:19.443Z,23.30
2022-07-30T08:19:35.986Z,23.30
2022-07-30T08:20:52.947Z,23.40
2022-07-30T08:22:02.121Z,23.40
2022-07-30T08:23:12.863Z,23.50
2022-07-30T08:24:17.672Z,23.60
2022-07-30T08:25:22.535Z,23.70
2022-07-30T08:26:28.505Z,23.70
2022-07-30T08:27:31.522Z,23.80
2022-07-30T08:28:36.950Z,23.90
2022-07-30T08:29:42.218Z,24.00
2022-07-30T08:30:45.884Z,24.10
2022-07-30T08:31:50.564Z,24.10
2022-07-30T08:32:54.564Z,24.30
2022-07-30T08:33:57.773Z,24.20
2022-07-30T08:35:01.109Z,24.20
2022-07-30T08:36:09.074Z,24.30
2022-07-30T08:37:14.469Z,24.10
2022-07-30T08:38:17.519Z,24.10
2022-07-30T08:39:22.317Z,24.10
2022-07-30T08:40:27.394Z,24.10
2022-07-30T08:41:40.273Z,24.20
2022-07-30T08:42:43.509Z,24.30
2022-07-30T08:43:48.771Z,24.20
2022-07-30T08:44:53.982Z,24.20
2022-07-30T08:45:59.595Z,24.20
2022-07-30T08:47:32.408Z,24.30
2022-07-30T08:48:44.184Z,24.30
2022-07-30T08:49:49.671Z,24.20
2022-07-30T08:50:59.628Z,24.20
2022-07-30T08:52:38.622Z,24.20
2022-07-30T08:53:43.403Z,24.20
2022-07-30T08:54:48.562Z,24.30
2022-07-30T08:55:51.594Z,25.50
2022-07-30T08:56:59.278Z,24.30
2022-07-30T08:58:11.246Z,24.40
2022-07-30T08:59:17.427Z,24.40
2022-07-30T09:00:20.558Z,24.30
2022-07-30T09:01:26.162Z,24.20
2022-07-30T09:02:32.940Z,24.10
2022-07-30T09:03:44.239Z,24.10
2022-07-30T09:04:47.532Z,24.10
2022-07-30T09:05:51.399Z,24.10
2022-07-30T09:06:53.897Z,24.30
2022-07-30T09:07:57.397Z,24.30
2022-07-30T09:09:00.549Z,24.40
2022-07-30T09:10:06.608Z,24.50
2022-07-30T09:11:10.285Z,24.60
2022-07-30T09:12:38.520Z,24.70
2022-07-30T09:13:44.688Z,24.70
2022-07-30T09:15:02.260Z,24.70
2022-07-30T09:16:07.063Z,25.50
2022-07-30T09:17:12.837Z,24.80
2022-07-30T09:18:26.980Z,24.90
2022-07-30T09:19:30.204Z,24.90
2022-07-30T09:20:35.358Z,25.00
2022-07-30T09:21:42.876Z,25.00
2022-07-30T09:23:00.408Z,24.90
2022-07-30T09:24:43.972Z,24.80
2022-07-30T09:26:07.693Z,24.70
2022-07-30T09:27:47.132Z,24.70
2022-07-30T09:29:17.805Z,24.80
2022-07-30T09:30:51.669Z,24.80
2022-07-30T09:32:13.255Z,24.70
2022-07-30T09:33:38.039Z,24.80
2022-07-30T09:35:15.048Z,24.80
2022-07-30T09:36:47.908Z,24.90
2022-07-30T09:38:27.309Z,25.00
2022-07-30T09:40:13.178Z,24.90
2022-07-30T09:41:48.127Z,24.90
2022-07-30T09:43:02.304Z,24.90
2022-07-30T09:44:06.887Z,24.80
2022-07-30T09:45:16.177Z,24.00
2022-07-30T09:46:22.222Z,23.30
2022-07-30T09:47:33.326Z,24.80
2022-07-30T09:48:36.713Z,24.70
2022-07-30T09:49:41.907Z,24.60
2022-07-30T09:50:53.075Z,24.50
2022-07-30T09:51:57.863Z,24.40
2022-07-30T09:54:51.240Z,24.30
2022-07-30T09:55:59.317Z,24.10
2022-07-30T09:57:23.147Z,24.00
2022-07-30T09:58:45.586Z,24.00
2022-07-30T09:59:49.488Z,23.90
2022-07-30T10:01:00.139Z,23.80
2022-07-30T10:02:34.067Z,23.70
2022-07-30T10:03:49.541Z,23.60
2022-07-30T10:05:25.381Z,23.60
2022-07-30T10:06:37.983Z,23.60
2022-07-30T10:07:51.478Z,23.50
2022-07-30T10:08:55.751Z,23.50
2022-07-30T10:10:00.727Z,23.40
2022-07-30T10:11:09.575Z,23.50
2022-07-30T10:12:15.405Z,23.40
2022-07-30T10:13:23.354Z,23.40
2022-07-30T10:14:42.873Z,23.40
2022-07-30T10:15:51.447Z,23.50
2022-07-30T10:16:55.011Z,23.50
2022-07-30T10:18:00.589Z,23.60
2022-07-30T10:19:40.275Z,23.50
2022-07-30T10:21:05.610Z,23.40
2022-07-30T10:22:28.373Z,23.20
2022-07-30T10:24:09.687Z,23.10
2022-07-30T10:25:48.966Z,23.00
2022-07-30T10:27:36.054Z,22.90
2022-07-30T10:28:55.236Z,22.90
2022-07-30T10:29:59.810Z,22.80
2022-07-30T10:31:15.277Z,22.80
2022-07-30T10:32:30.910Z,22.80
2022-07-30T10:33:37.712Z,22.60
2022-07-30T10:34:43.765Z,22.80
2022-07-30T10:35:47.319Z,22.80
2022-07-30T10:36:57.812Z,22.70
2022-07-30T10:38:02.842Z,23.10
2022-07-30T10:39:11.000Z,22.80
2022-07-30T10:40:30.689Z,22.70
2022-07-30T10:41:48.098Z,22.70
2022-07-30T10:43:17.398Z,22.70
2022-07-30T10:45:02.563Z,22.70
2022-07-30T10:46:20.028Z,22.60
2022-07-30T10:47:34.418Z,22.60
2022-07-30T10:48:40.544Z,22.60
2022-07-30T10:50:12.633Z,22.50
2022-07-30T10:51:18.549Z,22.50
2022-07-30T10:52:44.697Z,22.50
2022-07-30T10:53:48.856Z,22.60
2022-07-30T10:54:54.445Z,22.60
2022-07-30T10:56:14.025Z,22.70
2022-07-30T10:57:31.721Z,22.40
2022-07-30T10:59:00.386Z,22.30
2022-07-30T11:00:15.293Z,22.20
2022-07-30T11:01:19.193Z,22.10
2022-07-30T11:02:26.635Z,22.00
2022-07-30T11:03:41.346Z,22.00
2022-07-30T11:04:48.765Z,21.90
2022-07-30T11:06:29.022Z,21.90
2022-07-30T11:07:31.738Z,21.90
2022-07-30T11:08:42.613Z,21.90
2022-07-30T11:09:49.717Z,21.90
2022-07-30T11:12:05.861Z,21.90
2022-07-30T11:13:07.185Z,21.90
2022-07-30T11:14:09.717Z,22.00
2022-07-30T11:15:19.301Z,21.90
2022-07-30T11:16:24.880Z,21.90
2022-07-30T11:18:13.093Z,21.70
2022-07-30T11:19:54.976Z,22.00
2022-07-30T11:21:16.229Z,22.10
2022-07-30T11:22:29.804Z,22.00
2022-07-30T11:23:40.062Z,22.00
2022-07-30T11:24:48.971Z,22.00
2022-07-30T11:25:54.726Z,22.00
2022-07-30T11:26:58.627Z,22.00
2022-07-30T11:28:01.515Z,22.00
2022-07-30T11:29:06.559Z,22.00
2022-07-30T11:30:31.964Z,22.10
2022-07-30T11:32:07.422Z,22.10
2022-07-30T11:33:32.245Z,22.00
2022-07-30T11:34:36.835Z,22.00
2022-07-30T11:35:42.263Z,21.90
2022-07-30T11:37:18.199Z,21.70
2022-07-30T11:38:26.213Z,21.70
2022-07-30T11:40:09.828Z,21.80
2022-07-30T11:41:13.065Z,21.60
2022-07-30T11:42:26.617Z,21.50
2022-07-30T11:43:35.739Z,21.50
2022-07-30T11:44:39.109Z,21.40
2022-07-30T11:45:43.239Z,21.30
2022-07-30T11:46:49.053Z,21.30
2022-07-30T11:47:55.867Z,21.30
2022-07-30T11:49:01.428Z,21.50
2022-07-30T11:50:05.297Z,21.50
2022-07-30T11:51:09.950Z,21.60
2022-07-30T11:52:14.822Z,20.10
2022-07-30T11:53:20.706Z,21.70
2022-07-30T11:54:23.717Z,21.70
2022-07-30T11:55:30.401Z,21.70
2022-07-30T11:56:34.729Z,22.80
2022-07-30T11:57:40.858Z,21.80
2022-07-30T11:58:44.915Z,21.90
2022-07-30T11:59:54.244Z,21.90
2022-07-30T12:01:01.021Z,22.00
2022-07-30T12:02:04.049Z,22.10
2022-07-30T12:03:12.382Z,23.40
2022-07-30T12:04:14.903Z,22.10
2022-07-30T12:05:25.257Z,22.00
2022-07-30T12:06:28.637Z,21.90
2022-07-30T12:07:32.575Z,21.80
2022-07-30T12:08:42.270Z,23.20
2022-07-30T12:09:44.683Z,21.70
2022-07-30T12:10:59.770Z,21.70
2022-07-30T12:12:03.583Z,21.80
2022-07-30T12:13:12.358Z,21.90
2022-07-30T12:14:15.659Z,21.90
2022-07-30T12:15:32.452Z,21.90
2022-07-30T12:16:35.916Z,21.70
2022-07-30T12:17:46.028Z,22.90
2022-07-30T12:18:49.553Z,21.60
2022-07-30T12:19:52.409Z,21.60
2022-07-30T12:20:59.525Z,21.50
2022-07-30T12:22:02.125Z,21.50
2022-07-30T12:23:12.039Z,21.50
2022-07-30T12:24:14.968Z,21.40
2022-07-30T12:25:18.557Z,21.40
2022-07-30T12:26:23.160Z,20.80
2022-07-30T12:27:26.911Z,22.30
2022-07-30T12:28:33.270Z,21.20
2022-07-30T12:29:36.319Z,21.20
2022-07-30T12:30:40.100Z,21.20
2022-07-30T12:31:45.363Z,21.20
2022-07-30T12:32:47.931Z,21.30
2022-07-30T12:33:51.884Z,21.30
2022-07-30T12:34:56.239Z,21.30
2022-07-30T12:36:01.811Z,21.40
2022-07-30T12:37:10.900Z,21.40
2022-07-30T12:38:18.062Z,21.30
2022-07-30T12:39:22.795Z,21.40
2022-07-30T12:40:26.358Z,21.40
2022-07-30T12:41:42.788Z,21.40
2022-07-30T12:42:52.994Z,21.50
2022-07-30T12:43:56.453Z,21.40
2022-07-30T12:45:00.414Z,21.50
2022-07-30T12:46:02.908Z,22.30
2022-07-30T12:47:07.765Z,21.40
2022-07-30T12:48:11.428Z,21.40
2022-07-30T12:49:21.983Z,21.30
2022-07-30T12:50:26.315Z,21.30
2022-07-30T12:51:33.666Z,21.30
2022-07-30T12:52:39.024Z,21.40
2022-07-30T12:53:44.146Z,21.50
2022-07-30T12:54:58.023Z,21.60
2022-07-30T12:56:12.682Z,21.60
2022-07-30T12:57:15.140Z,21.40
2022-07-30T12:58:18.436Z,21.40
2022-07-30T12:59:22.683Z,21.30
2022-07-30T13:00:28.749Z,21.30
2022-07-30T13:01:40.578Z,21.30
2022-07-30T13:02:43.961Z,21.30
2022-07-30T13:03:47.618Z,21.30
2022-07-30T13:05:10.276Z,21.30
2022-07-30T13:06:20.397Z,21.30
2022-07-30T13:07:22.737Z,21.20
2022-07-30T13:08:47.466Z,21.20
2022-07-30T13:10:08.136Z,21.30
2022-07-30T13:11:11.599Z,21.30
2022-07-30T13:12:15.101Z,21.30
2022-07-30T13:13:18.487Z,21.40
2022-07-30T13:14:23.668Z,21.40
2022-07-30T13:15:29.443Z,21.50
2022-07-30T13:16:34.353Z,21.50
2022-07-30T13:17:38.017Z,21.50
2022-07-30T13:18:41.932Z,21.50
2022-07-30T13:19:44.579Z,21.50
2022-07-30T13:20:49.498Z,21.50
2022-07-30T13:21:52.017Z,21.60
2022-07-30T13:23:00.178Z,21.60
2022-07-30T13:24:07.649Z,21.60
2022-07-30T13:25:11.851Z,21.70
2022-07-30T13:26:15.375Z,21.80
2022-07-30T13:27:18.263Z,21.70
2022-07-30T13:28:22.029Z,21.80
2022-07-30T13:29:26.159Z,21.70
2022-07-30T13:30:28.875Z,21.50
2022-07-30T13:31:43.248Z,21.80
2022-07-30T13:32:46.780Z,21.80
2022-07-30T13:33:49.995Z,21.80
2022-07-30T13:34:53.549Z,21.80
2022-07-30T13:35:56.070Z,21.90
2022-07-30T13:36:59.782Z,21.90
2022-07-30T13:38:02.366Z,21.90
2022-07-30T13:39:07.198Z,21.90
2022-07-30T13:40:10.965Z,23.00
2022-07-30T13:41:14.608Z,21.90
2022-07-30T13:42:17.093Z,21.80
2022-07-30T13:43:20.623Z,21.70
2022-07-30T13:44:23.157Z,21.70
2022-07-30T13:45:26.803Z,21.70
2022-07-30T13:46:30.120Z,21.70
2022-07-30T13:47:32.591Z,21.80
2022-07-30T13:48:36.965Z,21.80
2022-07-30T13:49:44.126Z,21.90
2022-07-30T13:50:48.052Z,21.90
2022-07-30T13:51:51.031Z,22.00
2022-07-30T13:52:56.864Z,22.00
2022-07-30T13:54:07.505Z,22.10
2022-07-30T13:55:10.736Z,22.00
2022-07-30T13:56:13.271Z,20.70
2022-07-30T13:57:18.203Z,21.70
2022-07-30T13:58:20.949Z,23.90
2022-07-30T13:59:24.615Z,21.50
2022-07-30T14:00:32.387Z,21.50
2022-07-30T14:01:36.174Z,21.40
2022-07-30T14:02:39.082Z,21.30
2022-07-30T14:03:47.078Z,21.20
2022-07-30T14:04:51.715Z,21.20
2022-07-30T14:05:55.299Z,21.10
2022-07-30T14:07:13.294Z,21.10
2022-07-30T14:08:16.030Z,21.20
2022-07-30T14:09:20.871Z,21.20
2022-07-30T14:10:25.106Z,21.20
2022-07-30T14:11:28.430Z,21.20
2022-07-30T14:12:30.764Z,22.10
2022-07-30T14:13:34.197Z,21.20
2022-07-30T14:14:36.506Z,21.20
2022-07-30T14:15:40.085Z,21.20
2022-07-30T14:16:46.668Z,21.40
2022-07-30T14:17:56.054Z,21.30
2022-07-30T14:19:00.306Z,21.20
2022-07-30T14:20:02.855Z,21.30
2022-07-30T14:21:06.664Z,21.30
2022-07-30T14:22:09.309Z,21.30
2022-07-30T14:23:12.587Z,21.20
2022-07-30T14:24:16.796Z,21.00
2022-07-30T14:25:21.818Z,20.90
2022-07-30T14:26:24.366Z,20.80
2022-07-30T14:27:33.494Z,20.80
2022-07-30T14:28:35.757Z,20.80
2022-07-30T14:29:39.454Z,20.80
2022-07-30T14:30:42.535Z,20.80
2022-07-30T14:31:46.077Z,20.80
2022-07-30T14:32:57.349Z,20.60
2022-07-30T14:34:03.622Z,20.60
2022-07-30T14:35:09.368Z,20.60
2022-07-30T14:36:14.085Z,20.60
2022-07-30T14:37:17.038Z,20.70
2022-07-30T14:38:20.415Z,20.80
2022-07-30T14:39:22.760Z,20.80
2022-07-30T14:40:31.100Z,20.90
2022-07-30T14:41:35.545Z,20.90
2022-07-30T14:42:40.070Z,20.90
2022-07-30T14:43:42.382Z,20.90
2022-07-30T14:44:45.867Z,20.90
2022-07-30T14:45:50.801Z,20.90
2022-07-30T14:46:54.272Z,20.90
2022-07-30T14:47:58.554Z,20.90
2022-07-30T14:49:02.210Z,20.90
2022-07-30T14:50:06.517Z,20.90
2022-07-30T14:51:16.856Z,20.90
2022-07-30T14:52:23.025Z,20.90
2022-07-30T14:53:25.259Z,21.00
2022-07-30T14:54:28.879Z,21.00
2022-07-30T14:55:32.461Z,21.00
2022-07-30T14:56:36.121Z,20.80
2022-07-30T14:57:38.834Z,20.60
2022-07-30T14:58:42.016Z,20.60
2022-07-30T14:59:44.592Z,20.60
2022-07-30T15:00:48.986Z,20.60
2022-07-30T15:01:52.860Z,20.60
2022-07-30T15:02:56.639Z,20.70
2022-07-30T15:03:59.388Z,20.70
2022-07-30T15:05:02.753Z,20.70
2022-07-30T15:06:05.158Z,20.70